sensor_id;sensor_type;location;lat;lon;timestamp;pressure;altitude;pressure_sealevel;temperature;humidity
59409;BME280;45213;32.654;-115.458;2023-02-18T00:00:27;101626.25;;;18.25;16.43
59409;BME280;45213;32.654;-115.458;2023-02-18T00:02:54;101627.16;;;18.24;15.91
59409;BME280;45213;32.654;-115.458;2023-02-18T00:05:21;101627.13;;;18.27;16.10
59409;BME280;45213;32.654;-115.458;2023-02-18T00:07:48;101627.25;;;18.14;16.45
59409;BME280;45213;32.654;-115.458;2023-02-18T00:10:15;101630.88;;;18.01;16.75
59409;BME280;45213;32.654;-115.458;2023-02-18T00:12:42;101629.97;;;18.01;16.67
59409;BME280;45213;32.654;-115.458;2023-02-18T00:15:09;101627.38;;;17.99;15.97
59409;BME280;45213;32.654;-115.458;2023-02-18T00:17:36;101633.50;;;18.01;16.08
59409;BME280;45213;32.654;-115.458;2023-02-18T00:20:04;101629.22;;;17.88;15.93
59409;BME280;45213;32.654;-115.458;2023-02-18T00:22:31;101632.72;;;17.90;15.17
59409;BME280;45213;32.654;-115.458;2023-02-18T00:24:58;101636.22;;;17.89;15.90
59409;BME280;45213;32.654;-115.458;2023-02-18T00:27:24;101642.34;;;17.94;15.22
59409;BME280;45213;32.654;-115.458;2023-02-18T00:29:51;101643.38;;;17.71;15.51
59409;BME280;45213;32.654;-115.458;2023-02-18T00:32:18;101637.22;;;17.69;15.54
59409;BME280;45213;32.654;-115.458;2023-02-18T00:34:45;101645.03;;;17.88;16.46
59409;BME280;45213;32.654;-115.458;2023-02-18T00:37:11;101641.56;;;17.83;15.33
59409;BME280;45213;32.654;-115.458;2023-02-18T00:39:38;101632.84;;;17.68;15.08
59409;BME280;45213;32.654;-115.458;2023-02-18T00:42:04;101634.59;;;17.66;15.37
59409;BME280;45213;32.654;-115.458;2023-02-18T00:44:31;101630.09;;;17.88;16.02
59409;BME280;45213;32.654;-115.458;2023-02-18T00:46:58;101632.66;;;17.98;15.74
59409;BME280;45213;32.654;-115.458;2023-02-18T00:49:25;101627.97;;;19.11;15.13
59409;BME280;45213;32.654;-115.458;2023-02-18T00:51:51;101627.59;;;18.67;15.17
59409;BME280;45213;32.654;-115.458;2023-02-18T00:54:18;101623.75;;;18.09;16.46
59409;BME280;45213;32.654;-115.458;2023-02-18T00:56:45;101631.13;;;17.60;15.26
59409;BME280;45213;32.654;-115.458;2023-02-18T00:59:12;101629.50;;;17.40;16.21
59409;BME280;45213;32.654;-115.458;2023-02-18T01:01:38;101633.13;;;17.22;15.67
59409;BME280;45213;32.654;-115.458;2023-02-18T01:04:07;101632.19;;;17.28;16.23
59409;BME280;45213;32.654;-115.458;2023-02-18T01:06:33;101637.56;;;17.08;16.33
59409;BME280;45213;32.654;-115.458;2023-02-18T01:09:02;101642.00;;;16.94;18.38
59409;BME280;45213;32.654;-115.458;2023-02-18T01:11:29;101636.78;;;16.84;18.10
59409;BME280;45213;32.654;-115.458;2023-02-18T01:13:55;101638.53;;;16.82;18.06
59409;BME280;45213;32.654;-115.458;2023-02-18T01:16:22;101636.78;;;16.75;18.77
59409;BME280;45213;32.654;-115.458;2023-02-18T01:18:49;101639.41;;;16.69;18.40
59409;BME280;45213;32.654;-115.458;2023-02-18T01:21:16;101630.69;;;16.52;19.02
59409;BME280;45213;32.654;-115.458;2023-02-18T01:23:43;101635.09;;;16.46;19.21
59409;BME280;45213;32.654;-115.458;2023-02-18T01:26:09;101631.59;;;16.44;18.80
59409;BME280;45213;32.654;-115.458;2023-02-18T01:28:37;101624.59;;;16.39;19.26
59409;BME280;45213;32.654;-115.458;2023-02-18T01:31:08;101626.34;;;16.34;18.99
59409;BME280;45213;32.654;-115.458;2023-02-18T01:33:35;101624.59;;;16.25;18.53
59409;BME280;45213;32.654;-115.458;2023-02-18T01:36:02;101623.72;;;16.18;18.71
59409;BME280;45213;32.654;-115.458;2023-02-18T01:38:29;101625.47;;;16.16;19.08
59409;BME280;45213;32.654;-115.458;2023-02-18T01:40:56;101631.63;;;16.06;18.98
59409;BME280;45213;32.654;-115.458;2023-02-18T01:43:22;101622.88;;;16.04;19.46
59409;BME280;45213;32.654;-115.458;2023-02-18T01:45:59;101628.13;;;15.90;19.29
59409;BME280;45213;32.654;-115.458;2023-02-18T01:48:48;101622.84;;;15.87;19.27
59409;BME280;45213;32.654;-115.458;2023-02-18T01:51:20;101621.97;;;15.82;19.16
59409;BME280;45213;32.654;-115.458;2023-02-18T01:53:52;101622.88;;;15.81;19.50
59409;BME280;45213;32.654;-115.458;2023-02-18T01:56:30;101621.09;;;15.71;19.19
59409;BME280;45213;32.654;-115.458;2023-02-18T01:59:02;101621.03;;;15.64;19.51
59409;BME280;45213;32.654;-115.458;2023-02-18T02:01:30;101627.19;;;15.66;19.52
59409;BME280;45213;32.654;-115.458;2023-02-18T02:03:57;101627.19;;;15.59;19.47
59409;BME280;45213;32.654;-115.458;2023-02-18T02:06:24;101639.44;;;15.54;19.51
59409;BME280;45213;32.654;-115.458;2023-02-18T02:08:55;101634.19;;;15.54;19.76
59409;BME280;45213;32.654;-115.458;2023-02-18T02:14:02;101632.41;;;15.53;19.35
59409;BME280;45213;32.654;-115.458;2023-02-18T02:16:43;101626.28;;;15.51;19.73
59409;BME280;45213;32.654;-115.458;2023-02-18T02:27:25;101623.63;;;15.41;19.83
59409;BME280;45213;32.654;-115.458;2023-02-18T02:35:30;101629.75;;;15.37;20.57
59409;BME280;45213;32.654;-115.458;2023-02-18T02:40:37;101627.97;;;15.22;20.51
59409;BME280;45213;32.654;-115.458;2023-02-18T02:43:26;101628.84;;;15.20;19.82
59409;BME280;45213;32.654;-115.458;2023-02-18T02:46:17;101631.44;;;15.18;20.89
59409;BME280;45213;32.654;-115.458;2023-02-18T02:54:21;101640.13;;;15.02;19.87
59409;BME280;45213;32.654;-115.458;2023-02-18T02:56:48;101643.59;;;15.01;20.25
59409;BME280;45213;32.654;-115.458;2023-02-18T02:59:21;101642.75;;;15.02;20.28
59409;BME280;45213;32.654;-115.458;2023-02-18T03:04:58;101636.63;;;15.03;20.28
59409;BME280;45213;32.654;-115.458;2023-02-18T03:10:16;101628.72;;;14.98;20.06
59409;BME280;45213;32.654;-115.458;2023-02-18T03:16:00;101632.22;;;14.96;20.30
59409;BME280;45213;32.654;-115.458;2023-02-18T03:19:21;101629.59;;;14.90;20.35
59409;BME280;45213;32.654;-115.458;2023-02-18T03:21:43;101637.44;;;14.83;20.27
59409;BME280;45213;32.654;-115.458;2023-02-18T03:24:40;101635.66;;;14.79;20.43
59409;BME280;45213;32.654;-115.458;2023-02-18T03:29:38;101626.00;;;14.75;20.77
59409;BME280;45213;32.654;-115.458;2023-02-18T03:32:07;101637.34;;;14.71;20.82
59409;BME280;45213;32.654;-115.458;2023-02-18T03:34:41;101636.44;;;14.66;20.36
59409;BME280;45213;32.654;-115.458;2023-02-18T03:37:10;101625.94;;;14.61;19.76
59409;BME280;45213;32.654;-115.458;2023-02-18T03:39:41;101628.56;;;14.58;19.85
59409;BME280;45213;32.654;-115.458;2023-02-18T03:42:10;101636.44;;;14.63;20.04
59409;BME280;45213;32.654;-115.458;2023-02-18T03:44:36;101640.78;;;14.58;19.58
59409;BME280;45213;32.654;-115.458;2023-02-18T03:47:03;101653.81;;;14.52;19.51
59409;BME280;45213;32.654;-115.458;2023-02-18T03:49:30;101654.66;;;14.49;19.83
59409;BME280;45213;32.654;-115.458;2023-02-18T03:51:58;101655.47;;;14.44;19.79
59409;BME280;45213;32.654;-115.458;2023-02-18T03:54:25;101658.94;;;14.33;19.93
59409;BME280;45213;32.654;-115.458;2023-02-18T03:56:51;101663.25;;;14.27;20.29
59409;BME280;45213;32.654;-115.458;2023-02-18T03:59:18;101663.16;;;14.17;19.82
59409;BME280;45213;32.654;-115.458;2023-02-18T04:01:45;101665.75;;;14.13;20.13
59409;BME280;45213;32.654;-115.458;2023-02-18T04:04:12;101662.19;;;14.08;20.12
59409;BME280;45213;32.654;-115.458;2023-02-18T04:06:38;101660.44;;;14.07;20.33
59409;BME280;45213;32.654;-115.458;2023-02-18T04:09:05;101658.72;;;14.06;20.56
59409;BME280;45213;32.654;-115.458;2023-02-18T04:11:38;101659.53;;;14.03;20.18
59409;BME280;45213;32.654;-115.458;2023-02-18T04:14:06;101661.22;;;13.96;20.71
59409;BME280;45213;32.654;-115.458;2023-02-18T04:16:32;101660.34;;;13.96;20.49
59409;BME280;45213;32.654;-115.458;2023-02-18T04:18:59;101647.28;;;13.97;20.23
59409;BME280;45213;32.654;-115.458;2023-02-18T04:21:25;101646.38;;;13.92;20.43
59409;BME280;45213;32.654;-115.458;2023-02-18T04:23:52;101652.38;;;13.82;20.39
59409;BME280;45213;32.654;-115.458;2023-02-18T04:26:19;101658.41;;;13.75;20.51
59409;BME280;45213;32.654;-115.458;2023-02-18T04:28:45;101671.50;;;13.78;20.61
59409;BME280;45213;32.654;-115.458;2023-02-18T04:31:12;101677.63;;;13.77;20.20
59409;BME280;45213;32.654;-115.458;2023-02-18T04:33:40;101681.91;;;13.70;20.38
59409;BME280;45213;32.654;-115.458;2023-02-18T04:36:07;101675.81;;;13.70;20.50
59409;BME280;45213;32.654;-115.458;2023-02-18T04:38:34;101684.47;;;13.63;19.91
59409;BME280;45213;32.654;-115.458;2023-02-18T04:41:00;101687.84;;;13.55;20.00
59409;BME280;45213;32.654;-115.458;2023-02-18T04:43:27;101689.53;;;13.50;19.92
59409;BME280;45213;32.654;-115.458;2023-02-18T04:45:53;101695.72;;;13.54;20.04
59409;BME280;45213;32.654;-115.458;2023-02-18T04:48:20;101707.88;;;13.50;19.58
59409;BME280;45213;32.654;-115.458;2023-02-18T04:50:47;101705.22;;;13.47;20.10
59409;BME280;45213;32.654;-115.458;2023-02-18T04:53:13;101700.81;;;13.43;19.64
59409;BME280;45213;32.654;-115.458;2023-02-18T04:55:40;101710.41;;;13.44;19.31
59409;BME280;45213;32.654;-115.458;2023-02-18T04:58:07;101703.47;;;13.48;19.84
59409;BME280;45213;32.654;-115.458;2023-02-18T05:00:35;101701.69;;;13.42;19.66
59409;BME280;45213;32.654;-115.458;2023-02-18T05:03:01;101717.22;;;13.30;19.31
59409;BME280;45213;32.654;-115.458;2023-02-18T05:05:28;101711.88;;;13.25;19.11
59409;BME280;45213;32.654;-115.458;2023-02-18T05:07:54;101709.28;;;13.25;18.99
59409;BME280;45213;32.654;-115.458;2023-02-18T05:10:21;101693.47;;;13.16;19.26
59409;BME280;45213;32.654;-115.458;2023-02-18T05:12:47;101707.50;;;13.23;18.86
59409;BME280;45213;32.654;-115.458;2023-02-18T05:15:14;101704.84;;;13.20;18.76
59409;BME280;45213;32.654;-115.458;2023-02-18T05:17:40;101711.75;;;13.14;18.77
59409;BME280;45213;32.654;-115.458;2023-02-18T05:20:07;101710.00;;;13.13;18.41
59409;BME280;45213;32.654;-115.458;2023-02-18T05:22:34;101722.13;;;13.10;18.33
59409;BME280;45213;32.654;-115.458;2023-02-18T05:25:01;101719.59;;;13.13;18.50
59409;BME280;45213;32.654;-115.458;2023-02-18T05:27:27;101716.91;;;13.08;18.16
59409;BME280;45213;32.654;-115.458;2023-02-18T05:29:54;101716.91;;;13.08;18.38
59409;BME280;45213;32.654;-115.458;2023-02-18T05:32:21;101717.75;;;13.07;18.48
59409;BME280;45213;32.654;-115.458;2023-02-18T05:34:47;101725.56;;;13.04;18.14
59409;BME280;45213;32.654;-115.458;2023-02-18T05:37:14;101717.66;;;13.01;18.04
59409;BME280;45213;32.654;-115.458;2023-02-18T05:39:44;101722.06;;;13.05;18.19
59409;BME280;45213;32.654;-115.458;2023-02-18T05:42:11;101704.47;;;12.92;18.12
59409;BME280;45213;32.654;-115.458;2023-02-18T05:44:37;101704.47;;;12.92;18.10
59409;BME280;45213;32.654;-115.458;2023-02-18T05:47:09;101710.72;;;13.03;18.35
59409;BME280;45213;32.654;-115.458;2023-02-18T05:49:36;101709.78;;;12.98;18.40
59409;BME280;45213;32.654;-115.458;2023-02-18T05:52:04;101708.16;;;13.06;18.31
59409;BME280;45213;32.654;-115.458;2023-02-18T05:54:30;101712.53;;;13.07;18.28
59409;BME280;45213;32.654;-115.458;2023-02-18T05:56:57;101705.53;;;13.08;18.29
59409;BME280;45213;32.654;-115.458;2023-02-18T05:59:24;101701.97;;;13.01;17.99
59409;BME280;45213;32.654;-115.458;2023-02-18T06:01:50;101695.91;;;13.02;18.33
59409;BME280;45213;32.654;-115.458;2023-02-18T06:04:17;101691.53;;;13.03;18.44
59409;BME280;45213;32.654;-115.458;2023-02-18T06:06:44;101688.91;;;13.01;18.29
59409;BME280;45213;32.654;-115.458;2023-02-18T06:09:11;101687.19;;;13.03;18.44
59409;BME280;45213;32.654;-115.458;2023-02-18T06:11:38;101682.81;;;13.02;18.38
59409;BME280;45213;32.654;-115.458;2023-02-18T06:14:04;101695.91;;;13.02;18.56
59409;BME280;45213;32.654;-115.458;2023-02-18T06:16:31;101688.84;;;12.95;18.51
59409;BME280;45213;32.654;-115.458;2023-02-18T06:18:58;101687.06;;;12.92;18.47
59409;BME280;45213;32.654;-115.458;2023-02-18T06:21:25;101680.25;;;13.05;22.30
59409;BME280;45213;32.654;-115.458;2023-02-18T06:23:51;101683.66;;;13.01;18.60
59409;BME280;45213;32.654;-115.458;2023-02-18T06:26:18;101681.78;;;12.89;18.39
59409;BME280;45213;32.654;-115.458;2023-02-18T06:28:45;101679.06;;;12.82;18.60
59409;BME280;45213;32.654;-115.458;2023-02-18T06:31:12;101679.88;;;12.78;18.41
59409;BME280;45213;32.654;-115.458;2023-02-18T06:33:38;101688.59;;;12.77;18.38
59409;BME280;45213;32.654;-115.458;2023-02-18T06:36:07;101694.66;;;12.74;18.73
59409;BME280;45213;32.654;-115.458;2023-02-18T06:38:34;101700.72;;;12.73;18.62
59409;BME280;45213;32.654;-115.458;2023-02-18T06:41:01;101693.59;;;12.64;18.81
59409;BME280;45213;32.654;-115.458;2023-02-18T06:43:28;101690.03;;;12.58;18.57
59409;BME280;45213;32.654;-115.458;2023-02-18T06:45:55;101692.63;;;12.58;18.69
59409;BME280;45213;32.654;-115.458;2023-02-18T06:48:22;101693.53;;;12.58;18.68
59409;BME280;45213;32.654;-115.458;2023-02-18T06:50:49;101686.50;;;12.54;18.58
59409;BME280;45213;32.654;-115.458;2023-02-18T06:53:16;101689.94;;;12.53;18.26
59409;BME280;45213;32.654;-115.458;2023-02-18T06:55:43;101682.13;;;12.51;18.75
59409;BME280;45213;32.654;-115.458;2023-02-18T06:58:11;101680.31;;;12.49;18.49
59409;BME280;45213;32.654;-115.458;2023-02-18T07:00:38;101676.81;;;12.48;18.38
59409;BME280;45213;32.654;-115.458;2023-02-18T07:03:05;101673.34;;;12.48;18.83
59409;BME280;45213;32.654;-115.458;2023-02-18T07:05:32;101677.66;;;12.46;18.58
59409;BME280;45213;32.654;-115.458;2023-02-18T07:07:59;101679.31;;;12.41;18.37
59409;BME280;45213;32.654;-115.458;2023-02-18T07:10:25;101677.56;;;12.38;18.72
59409;BME280;45213;32.654;-115.458;2023-02-18T07:12:52;101673.88;;;12.28;18.46
59409;BME280;45213;32.654;-115.458;2023-02-18T07:15:19;101669.66;;;12.35;18.60
59409;BME280;45213;32.654;-115.458;2023-02-18T07:17:50;101662.63;;;12.32;18.68
59409;BME280;45213;32.654;-115.458;2023-02-18T07:20:18;101661.72;;;12.29;18.35
59409;BME280;45213;32.654;-115.458;2023-02-18T07:22:45;101665.19;;;12.26;18.59
59409;BME280;45213;32.654;-115.458;2023-02-18T07:25:12;101662.63;;;12.31;18.49
59409;BME280;45213;32.654;-115.458;2023-02-18T07:27:39;101660.94;;;12.35;18.19
59409;BME280;45213;32.654;-115.458;2023-02-18T07:30:06;101671.44;;;12.38;19.06
59409;BME280;45213;32.654;-115.458;2023-02-18T07:32:32;101671.44;;;12.38;18.20
59409;BME280;45213;32.654;-115.458;2023-02-18T07:34:59;101674.00;;;12.35;18.39
59409;BME280;45213;32.654;-115.458;2023-02-18T07:37:26;101675.78;;;12.37;18.17
59409;BME280;45213;32.654;-115.458;2023-02-18T07:39:52;101677.44;;;12.32;18.49
59409;BME280;45213;32.654;-115.458;2023-02-18T07:42:19;101679.19;;;12.31;18.41
59409;BME280;45213;32.654;-115.458;2023-02-18T07:44:46;101679.19;;;12.33;18.33
59409;BME280;45213;32.654;-115.458;2023-02-18T07:47:14;101677.38;;;12.27;18.30
59409;BME280;45213;32.654;-115.458;2023-02-18T07:49:44;101665.97;;;12.22;18.57
59409;BME280;45213;32.654;-115.458;2023-02-18T07:52:11;101669.41;;;12.20;18.76
59409;BME280;45213;32.654;-115.458;2023-02-18T07:54:37;101661.66;;;12.24;18.72
59409;BME280;45213;32.654;-115.458;2023-02-18T07:57:04;101660.69;;;12.18;18.72
59409;BME280;45213;32.654;-115.458;2023-02-18T07:59:30;101661.59;;;12.21;19.34
59409;BME280;45213;32.654;-115.458;2023-02-18T08:01:57;101659.81;;;12.19;18.84
59409;BME280;45213;32.654;-115.458;2023-02-18T08:04:24;101652.84;;;12.19;18.99
59409;BME280;45213;32.654;-115.458;2023-02-18T08:06:50;101646.72;;;12.16;19.24
59409;BME280;45213;32.654;-115.458;2023-02-18T08:09:17;101661.47;;;12.14;18.92
59409;BME280;45213;32.654;-115.458;2023-02-18T08:11:44;101657.13;;;12.14;18.90
59409;BME280;45213;32.654;-115.458;2023-02-18T08:14:11;101656.22;;;12.12;18.93
59409;BME280;45213;32.654;-115.458;2023-02-18T08:16:37;101662.34;;;12.14;19.11
59409;BME280;45213;32.654;-115.458;2023-02-18T08:19:04;101661.41;;;12.09;18.82
59409;BME280;45213;32.654;-115.458;2023-02-18T08:21:31;101661.41;;;12.09;18.67
59409;BME280;45213;32.654;-115.458;2023-02-18T08:23:58;101657.94;;;12.10;19.21
59409;BME280;45213;32.654;-115.458;2023-02-18T08:26:25;101657.09;;;12.12;19.02
59409;BME280;45213;32.654;-115.458;2023-02-18T08:28:52;101656.91;;;12.00;19.13
59409;BME280;45213;32.654;-115.458;2023-02-18T08:31:29;101661.13;;;11.94;19.39
59409;BME280;45213;32.654;-115.458;2023-02-18T08:33:57;101661.13;;;11.94;20.28
59409;BME280;45213;32.654;-115.458;2023-02-18T08:36:26;101658.44;;;11.89;20.18
59409;BME280;45213;32.654;-115.458;2023-02-18T08:38:53;101667.84;;;11.82;20.08
59409;BME280;45213;32.654;-115.458;2023-02-18T08:41:20;101666.13;;;11.81;20.28
59409;BME280;45213;32.654;-115.458;2023-02-18T08:43:47;101670.53;;;11.85;20.83
59409;BME280;45213;32.654;-115.458;2023-02-18T08:46:14;101668.72;;;11.81;20.11
59409;BME280;45213;32.654;-115.458;2023-02-18T08:48:42;101667.84;;;11.82;20.29
59409;BME280;45213;32.654;-115.458;2023-02-18T08:51:15;101661.75;;;11.82;20.38
59409;BME280;45213;32.654;-115.458;2023-02-18T08:53:43;101657.41;;;11.82;20.28
59409;BME280;45213;32.654;-115.458;2023-02-18T08:56:12;101653.06;;;11.81;20.30
59409;BME280;45213;32.654;-115.458;2023-02-18T08:58:40;101658.28;;;11.83;20.12
59409;BME280;45213;32.654;-115.458;2023-02-18T09:01:08;101667.81;;;11.79;20.45
59409;BME280;45213;32.654;-115.458;2023-02-18T09:03:35;101665.25;;;11.82;20.69
59409;BME280;45213;32.654;-115.458;2023-02-18T09:06:02;101659.94;;;11.78;20.68
59409;BME280;45213;32.654;-115.458;2023-02-18T09:08:29;101649.50;;;11.78;20.83
59409;BME280;45213;32.654;-115.458;2023-02-18T09:10:58;101653.91;;;11.80;20.64
59409;BME280;45213;32.654;-115.458;2023-02-18T09:13:26;101660.94;;;11.84;20.91
59409;BME280;45213;32.654;-115.458;2023-02-18T09:16:01;101652.91;;;11.74;20.40
59409;BME280;45213;32.654;-115.458;2023-02-18T09:18:28;101653.69;;;11.68;20.43
59409;BME280;45213;32.654;-115.458;2023-02-18T09:20:57;101651.13;;;11.71;20.47
59409;BME280;45213;32.654;-115.458;2023-02-18T09:23:26;101639.75;;;11.66;20.95
59409;BME280;45213;32.654;-115.458;2023-02-18T09:25:53;101636.25;;;11.67;21.00
59409;BME280;45213;32.654;-115.458;2023-02-18T09:28:20;101651.13;;;11.69;21.34
59409;BME280;45213;32.654;-115.458;2023-02-18T09:30:47;101643.13;;;11.62;21.59
59409;BME280;45213;32.654;-115.458;2023-02-18T09:33:14;101639.53;;;11.54;21.29
59409;BME280;45213;32.654;-115.458;2023-02-18T09:35:41;101639.44;;;11.50;21.11
59409;BME280;45213;32.654;-115.458;2023-02-18T09:38:10;101648.13;;;11.49;21.31
59409;BME280;45213;32.654;-115.458;2023-02-18T09:40:44;101635.94;;;11.48;21.31
59409;BME280;45213;32.654;-115.458;2023-02-18T09:43:24;101630.72;;;11.48;21.80
59409;BME280;45213;32.654;-115.458;2023-02-18T09:45:55;101627.19;;;11.46;21.29
59409;BME280;45213;32.654;-115.458;2023-02-18T09:48:30;101630.56;;;11.41;21.78
59409;BME280;45213;32.654;-115.458;2023-02-18T09:50:59;101619.97;;;11.33;21.25
59409;BME280;45213;32.654;-115.458;2023-02-18T09:53:26;101628.72;;;11.34;21.86
59409;BME280;45213;32.654;-115.458;2023-02-18T09:55:55;101632.88;;;11.25;21.76
59409;BME280;45213;32.654;-115.458;2023-02-18T09:58:28;101639.09;;;11.32;21.96
59409;BME280;45213;32.654;-115.458;2023-02-18T10:03:37;101621.41;;;11.16;21.45
59409;BME280;45213;32.654;-115.458;2023-02-18T10:06:10;101640.66;;;11.24;21.21
59409;BME280;45213;32.654;-115.458;2023-02-18T10:08:49;101633.75;;;11.26;21.01
59409;BME280;45213;32.654;-115.458;2023-02-18T10:11:31;101630.31;;;11.27;21.70
59409;BME280;45213;32.654;-115.458;2023-02-18T10:13:58;101630.22;;;11.24;20.97
59409;BME280;45213;32.654;-115.458;2023-02-18T10:16:26;101630.31;;;11.27;21.68
59409;BME280;45213;32.654;-115.458;2023-02-18T10:19:03;101626.78;;;11.25;22.05
59409;BME280;45213;32.654;-115.458;2023-02-18T10:21:33;101633.75;;;11.26;21.72
59409;BME280;45213;32.654;-115.458;2023-02-18T10:24:29;101624.97;;;11.21;21.63
59409;BME280;45213;32.654;-115.458;2023-02-18T10:26:57;101623.09;;;11.14;22.17
59409;BME280;45213;32.654;-115.458;2023-02-18T10:29:25;101616.94;;;11.10;22.40
59409;BME280;45213;32.654;-115.458;2023-02-18T10:32:00;101615.22;;;11.11;22.46
59409;BME280;45213;32.654;-115.458;2023-02-18T10:34:42;101608.28;;;11.11;21.96
59409;BME280;45213;32.654;-115.458;2023-02-18T10:40:22;101592.56;;;11.08;22.79
59409;BME280;45213;32.654;-115.458;2023-02-18T10:45:54;101598.50;;;11.01;21.65
59409;BME280;45213;32.654;-115.458;2023-02-18T10:51:18;101607.00;;;10.92;21.03
59409;BME280;45213;32.654;-115.458;2023-02-18T10:53:49;101602.66;;;10.91;21.07
59409;BME280;45213;32.654;-115.458;2023-02-18T10:56:33;101596.66;;;10.95;21.34
59409;BME280;45213;32.654;-115.458;2023-02-18T10:59:12;101593.97;;;10.92;21.50
59409;BME280;45213;32.654;-115.458;2023-02-18T11:01:40;101596.53;;;10.89;21.84
59409;BME280;45213;32.654;-115.458;2023-02-18T11:04:18;101600.91;;;10.90;21.38
59409;BME280;45213;32.654;-115.458;2023-02-18T11:06:48;101601.75;;;10.89;21.03
59409;BME280;45213;32.654;-115.458;2023-02-18T11:12:09;101597.31;;;10.85;21.33
59409;BME280;45213;32.654;-115.458;2023-02-18T11:14:45;101589.56;;;10.88;21.24
59409;BME280;45213;32.654;-115.458;2023-02-18T11:17:30;101584.38;;;10.88;21.92
59409;BME280;45213;32.654;-115.458;2023-02-18T11:19:59;101585.19;;;10.87;21.75
59409;BME280;45213;32.654;-115.458;2023-02-18T11:22:35;101588.56;;;10.83;21.45
59409;BME280;45213;32.654;-115.458;2023-02-18T11:25:27;101593.69;;;10.78;21.41
59409;BME280;45213;32.654;-115.458;2023-02-18T11:28:04;101590.97;;;10.74;21.37
59409;BME280;45213;32.654;-115.458;2023-02-18T11:30:40;101594.41;;;10.70;21.28
59409;BME280;45213;32.654;-115.458;2023-02-18T11:33:16;101585.66;;;10.68;21.38
59409;BME280;45213;32.654;-115.458;2023-02-18T11:35:52;101595.41;;;10.78;21.69
59409;BME280;45213;32.654;-115.458;2023-02-18T11:40:56;101590.16;;;10.75;21.44
59409;BME280;45213;32.654;-115.458;2023-02-18T11:43:28;101587.34;;;10.65;21.14
59409;BME280;45213;32.654;-115.458;2023-02-18T11:46:09;101583.06;;;10.69;21.77
59409;BME280;45213;32.654;-115.458;2023-02-18T11:48:36;101577.91;;;10.71;21.91
59409;BME280;45213;32.654;-115.458;2023-02-18T11:51:03;101585.69;;;10.69;22.18
59409;BME280;45213;32.654;-115.458;2023-02-18T11:53:34;101583.06;;;10.69;22.04
59409;BME280;45213;32.654;-115.458;2023-02-18T11:56:12;101589.06;;;10.65;21.75
59409;BME280;45213;32.654;-115.458;2023-02-18T11:58:46;101604.69;;;10.63;21.91
59409;BME280;45213;32.654;-115.458;2023-02-18T12:01:40;101607.25;;;10.62;21.62
59409;BME280;45213;32.654;-115.458;2023-02-18T12:04:20;101605.44;;;10.59;22.63
59409;BME280;45213;32.654;-115.458;2023-02-18T12:09:48;101599.25;;;10.54;22.60
59409;BME280;45213;32.654;-115.458;2023-02-18T12:12:23;101600.09;;;10.52;22.78
59409;BME280;45213;32.654;-115.458;2023-02-18T12:14:53;101607.84;;;10.50;22.34
59409;BME280;45213;32.654;-115.458;2023-02-18T12:39:52;101608.88;;;10.20;24.09
59409;BME280;45213;32.654;-115.458;2023-02-18T12:48:37;101628.63;;;10.12;23.99
59409;BME280;45213;32.654;-115.458;2023-02-18T12:59:58;101624.81;;;9.98;24.44
59409;BME280;45213;32.654;-115.458;2023-02-18T13:02:28;101623.78;;;9.91;25.20
59409;BME280;45213;32.654;-115.458;2023-02-18T13:05:11;101628.78;;;9.83;24.20
59409;BME280;45213;32.654;-115.458;2023-02-18T13:13:40;101631.41;;;9.83;24.73
59409;BME280;45213;32.654;-115.458;2023-02-18T13:16:14;101622.56;;;9.78;24.70
59409;BME280;45213;32.654;-115.458;2023-02-18T13:18:50;101642.47;;;9.76;24.68
59409;BME280;45213;32.654;-115.458;2023-02-18T13:21:18;101639.72;;;9.72;24.76
59409;BME280;45213;32.654;-115.458;2023-02-18T13:23:52;101659.84;;;9.77;25.09
59409;BME280;45213;32.654;-115.458;2023-02-18T13:26:21;101660.66;;;9.75;25.76
59409;BME280;45213;32.654;-115.458;2023-02-18T13:39:15;101661.19;;;9.31;27.69
59409;BME280;45213;32.654;-115.458;2023-02-18T13:41:47;101654.84;;;9.22;28.01
59409;BME280;45213;32.654;-115.458;2023-02-18T13:46:52;101653.03;;;9.19;27.62
59409;BME280;45213;32.654;-115.458;2023-02-18T13:49:39;101662.28;;;9.09;28.03
59409;BME280;45213;32.654;-115.458;2023-02-18T13:52:15;101666.63;;;9.09;28.24
59409;BME280;45213;32.654;-115.458;2023-02-18T13:54:45;101666.44;;;9.03;28.96
59409;BME280;45213;32.654;-115.458;2023-02-18T13:57:16;101671.53;;;8.99;28.80
59409;BME280;45213;32.654;-115.458;2023-02-18T13:59:48;101675.81;;;8.97;27.90
59409;BME280;45213;32.654;-115.458;2023-02-18T14:26:06;101690.28;;;8.89;29.01
59409;BME280;45213;32.654;-115.458;2023-02-18T14:31:03;101686.16;;;8.96;29.17
59409;BME280;45213;32.654;-115.458;2023-02-18T14:33:33;101681.69;;;8.92;29.27
59409;BME280;45213;32.654;-115.458;2023-02-18T14:36:30;101691.41;;;8.99;29.27
59409;BME280;45213;32.654;-115.458;2023-02-18T14:49:45;101707.69;;;12.19;25.54
59409;BME280;45213;32.654;-115.458;2023-02-18T14:54:55;101725.06;;;12.16;24.80
59409;BME280;45213;32.654;-115.458;2023-02-18T14:58:22;101726.91;;;12.23;25.45
59409;BME280;45213;32.654;-115.458;2023-02-18T15:00:25;101730.06;;;13.16;23.55
59409;BME280;45213;32.654;-115.458;2023-02-18T15:02:59;101730.50;;;14.32;22.29
59409;BME280;45213;32.654;-115.458;2023-02-18T15:05:31;101740.81;;;14.11;21.35